Time;durP1;ratioP1;P1;durP2;ratioP2;P2;SDS_P1;SDS_P2;PMS_P1;PMS_P2;Temp;Humidity;BMP_temperature;BMP_pressure;BME280_temperature;BME280_humidity;BME280_pressure;Samples;Min_cycle;Max_cycle;Signal;HPM_P1;HPM_P2
2022/05/04 00:01:20;;;;;;;6.60;2.47;;;;;;;12.24;92.33;96563.03;4960412;28;20110;-65
2022/05/04 00:03:46;;;;;;;5.45;3.10;;;;;;;12.22;90.94;96564.56;4993001;28;20034;-68
2022/05/04 00:06:11;;;;;;;5.95;2.65;;;;;;;12.12;92.11;96570.75;4992611;28;20026;-64
2022/05/04 00:08:37;;;;;;;6.03;2.83;;;;;;;12.01;92.69;96565.16;4993183;28;20061;-66
2022/05/04 00:11:04;;;;;;;3.92;2.70;;;;;;;11.88;93.38;96561.91;4993105;28;20034;-66
2022/05/04 00:13:31;;;;;;;4.15;2.50;;;;;;;11.90;93.23;96558.78;4993081;28;20528;-65
2022/05/04 00:15:57;;;;;;;4.00;2.40;;;;;;;11.97;94.02;96559.66;4958466;28;20030;-66
2022/05/04 00:18:23;;;;;;;6.60;2.47;;;;;;;12.00;93.93;96561.66;4992885;28;20038;-66
2022/05/04 00:20:48;;;;;;;3.67;2.63;;;;;;;11.96;95.50;96566.31;4993180;28;20179;-67
2022/05/04 00:23:14;;;;;;;4.28;2.90;;;;;;;12.02;95.86;96564.00;4975625;28;20058;-65
2022/05/04 00:25:39;;;;;;;5.35;3.10;;;;;;;12.09;96.01;96563.28;4992163;28;20035;-65
2022/05/04 00:28:05;;;;;;;4.70;3.13;;;;;;;12.09;95.85;96561.31;4992875;28;20129;-66
2022/05/04 00:30:31;;;;;;;3.97;2.58;;;;;;;12.00;94.75;96558.91;4992243;28;20566;-65
2022/05/04 00:32:57;;;;;;;3.58;2.60;;;;;;;11.86;97.55;96564.22;4992395;28;20057;-68
2022/05/04 00:35:22;;;;;;;5.45;2.80;;;;;;;11.92;98.39;96562.75;4992138;28;20045;-68
2022/05/04 00:37:48;;;;;;;5.07;2.63;;;;;;;11.93;97.89;96561.59;4975065;28;20649;-65
2022/05/04 00:40:13;;;;;;;3.47;2.58;;;;;;;11.87;96.35;96563.06;4992779;28;20062;-66
2022/05/04 00:42:39;;;;;;;5.03;2.83;;;;;;;11.88;97.63;96550.13;4992971;28;20034;-67
2022/05/04 00:45:05;;;;;;;5.93;2.92;;;;;;;11.81;97.59;96550.84;4991056;28;20030;-67
2022/05/04 00:47:31;;;;;;;6.32;3.13;;;;;;;11.66;98.88;96550.72;4991898;28;20134;-65
2022/05/04 00:49:57;;;;;;;5.53;2.85;;;;;;;11.67;100.00;96549.56;4991414;28;20040;-66
2022/05/04 00:52:24;;;;;;;3.72;2.55;;;;;;;11.83;100.00;96549.31;4974464;28;20038;-70
2022/05/04 00:54:51;;;;;;;5.40;3.10;;;;;;;11.90;99.18;96556.03;4975028;28;20041;-67
2022/05/04 01:00:07;;;;;;;4.88;3.38;;;;;;;11.85;99.96;96551.69;4974439;28;20205;-66
2022/05/04 01:02:33;;;;;;;3.88;3.03;;;;;;;11.72;100.00;96550.38;4994065;28;20034;-66
2022/05/04 01:04:58;;;;;;;6.93;3.60;;;;;;;11.66;100.00;96558.16;4992448;28;20088;-65
2022/05/04 01:07:24;;;;;;;6.15;3.88;;;;;;;11.60;100.00;96554.97;4992140;28;20062;-68
2022/05/04 01:09:50;;;;;;;4.32;3.17;;;;;;;11.51;100.00;96560.00;4974629;28;20050;-69
2022/05/04 01:12:15;;;;;;;6.75;3.58;;;;;;;11.37;100.00;96559.84;4991891;28;20530;-65
2022/05/04 01:14:41;;;;;;;6.20;3.00;;;;;;;11.22;100.00;96558.91;4991594;28;20034;-65
2022/05/04 01:17:07;;;;;;;4.18;3.30;;;;;;;11.08;100.00;96554.03;4991186;28;20038;-67
2022/05/04 01:19:32;;;;;;;7.97;3.70;;;;;;;10.95;100.00;96561.69;4992033;28;20035;-67
2022/05/04 01:21:58;;;;;;;4.53;3.30;;;;;;;10.85;100.00;96565.88;4974544;28;20113;-67
2022/05/04 01:24:23;;;;;;;6.57;3.40;;;;;;;10.49;100.00;96570.06;4992017;28;20045;-68
2022/05/04 01:26:48;;;;;;;7.80;3.55;;;;;;;10.57;100.00;96570.94;4991596;28;20038;-66
2022/05/04 01:29:14;;;;;;;6.82;3.20;;;;;;;10.61;100.00;96574.56;4993005;28;20038;-64
2022/05/04 01:31:40;;;;;;;7.05;3.30;;;;;;;10.46;100.00;96577.09;4981286;28;20513;-65
2022/05/04 01:34:05;;;;;;;5.47;4.00;;;;;;;10.15;100.00;96580.88;5005978;28;20036;-65
2022/05/04 01:36:31;;;;;;;5.35;4.13;;;;;;;10.05;100.00;96581.50;4986636;28;20030;-68
2022/05/04 01:38:56;;;;;;;7.22;4.00;;;;;;;9.93;100.00;96580.50;4992296;28;20050;-68
2022/05/04 01:44:06;;;;;;;8.07;3.88;;;;;;;9.81;100.00;96577.94;4976022;28;20490;-66
2022/05/04 01:46:32;;;;;;;5.55;3.95;;;;;;;10.01;100.00;96584.19;4982001;28;20034;-66
2022/05/04 01:48:57;;;;;;;5.50;3.47;;;;;;;10.13;100.00;96583.19;4993085;28;20065;-67
2022/05/04 01:51:23;;;;;;;8.57;3.72;;;;;;;10.00;100.00;96584.53;5007235;28;20038;-67
2022/05/04 01:53:49;;;;;;;6.55;4.20;;;;;;;9.82;100.00;96582.28;5005700;28;20038;-66
2022/05/04 01:56:14;;;;;;;4.55;3.53;;;;;;;9.91;100.00;96587.50;4997815;28;20038;-67
2022/05/04 01:58:40;;;;;;;8.70;3.60;;;;;;;10.01;100.00;96586.09;4996284;28;20076;-68
2022/05/04 02:01:06;;;;;;;7.65;3.60;;;;;;;10.06;100.00;96585.78;5007783;28;20106;-66
2022/05/04 02:03:31;;;;;;;5.53;3.53;;;;;;;9.98;100.00;96587.63;4997345;28;20479;-69
2022/05/04 02:05:57;;;;;;;6.22;3.95;;;;;;;10.00;100.00;96579.84;4990761;28;20123;-64
2022/05/04 02:08:23;;;;;;;7.03;3.60;;;;;;;10.10;100.00;96584.72;4990049;28;20065;-67
2022/05/04 02:10:49;;;;;;;6.75;3.60;;;;;;;10.17;100.00;96585.97;4991001;28;20084;-65
2022/05/04 02:13:14;;;;;;;3.88;3.20;;;;;;;10.11;100.00;96585.50;4991154;28;20108;-65
2022/05/04 02:15:40;;;;;;;5.57;3.70;;;;;;;10.01;100.00;96586.91;4990785;28;20030;-68
2022/05/04 02:18:05;;;;;;;4.60;3.40;;;;;;;9.96;100.00;96584.47;4976421;28;20042;-67
2022/05/04 02:20:31;;;;;;;7.13;3.55;;;;;;;9.94;100.00;96587.56;4991669;28;20037;-64
2022/05/04 02:22:56;;;;;;;4.30;3.30;;;;;;;9.86;100.00;96593.28;4974431;28;20402;-65
2022/05/04 02:25:21;;;;;;;8.23;3.47;;;;;;;9.62;100.00;96581.53;4991183;28;20092;-65
2022/05/04 02:27:47;;;;;;;4.97;3.60;;;;;;;9.47;100.00;96588.69;4991373;28;20391;-64
2022/05/04 02:30:13;;;;;;;5.97;3.70;;;;;;;9.43;100.00;96584.31;4966115;28;20042;-66
2022/05/04 02:32:39;;;;;;;7.78;4.40;;;;;;;8.91;100.00;96580.94;4961686;28;20042;-66
2022/05/04 02:37:55;;;;;;;6.93;4.60;;;;;;;8.38;100.00;96578.59;4989740;28;20093;-66
2022/05/04 02:40:21;;;;;;;7.18;4.30;;;;;;;8.33;100.00;96581.59;4989705;28;20063;-68
2022/05/04 02:42:46;;;;;;;6.47;4.47;;;;;;;8.36;100.00;96584.41;4983837;28;20069;-67
2022/05/04 02:45:12;;;;;;;11.43;4.80;;;;;;;8.36;100.00;96581.66;4969072;28;20154;-67
2022/05/04 02:47:39;;;;;;;6.65;4.10;;;;;;;8.68;100.00;96581.63;4990704;28;20253;-64
2022/05/04 02:50:05;;;;;;;7.60;4.20;;;;;;;8.77;100.00;96586.91;4991806;28;20034;-65
2022/05/04 02:52:31;;;;;;;8.90;4.20;;;;;;;8.84;100.00;96583.50;4976830;28;20062;-66
2022/05/04 02:54:56;;;;;;;5.47;3.75;;;;;;;8.89;100.00;96594.16;4975463;28;20064;-65
2022/05/04 02:57:22;;;;;;;5.00;4.10;;;;;;;8.93;100.00;96590.38;4994805;28;20096;-69
2022/05/04 02:59:47;;;;;;;6.03;4.00;;;;;;;8.94;100.00;96600.13;4994849;28;20030;-68
2022/05/04 03:02:28;;;;;;;12.65;4.35;;;;;;;8.84;100.00;96594.44;4980232;28;20035;-69
2022/05/04 03:05:01;;;;;;;7.07;3.78;;;;;;;8.72;100.00;96585.22;4994424;28;20062;-65
2022/05/04 03:07:27;;;;;;;6.50;3.83;;;;;;;8.74;100.00;96590.34;4994451;28;20039;-65
2022/05/04 03:09:54;;;;;;;5.75;3.90;;;;;;;8.77;100.00;96584.94;4995092;28;20030;-67
2022/05/04 03:12:19;;;;;;;5.35;3.67;;;;;;;8.80;100.00;96586.16;4995242;28;20030;-65
2022/05/04 03:14:45;;;;;;;7.47;3.60;;;;;;;8.85;100.00;96582.38;4995349;28;20061;-64
2022/05/04 03:17:11;;;;;;;8.55;3.80;;;;;;;8.83;100.00;96580.00;4974939;28;20061;-65
2022/05/04 03:19:37;;;;;;;7.05;3.67;;;;;;;8.73;100.00;96584.09;4993980;28;20034;-64
2022/05/04 03:22:02;;;;;;;5.35;3.50;;;;;;;8.70;100.00;96589.47;4995157;28;20057;-64
2022/05/04 03:24:28;;;;;;;7.18;3.80;;;;;;;8.64;100.00;96579.97;4961513;28;20046;-67
2022/05/04 03:26:53;;;;;;;4.70;3.80;;;;;;;8.57;100.00;96586.88;4976589;28;20419;-67
2022/05/04 03:29:18;;;;;;;5.20;3.88;;;;;;;8.51;100.00;96588.28;4991101;28;20034;-67
2022/05/04 03:31:44;;;;;;;4.82;3.35;;;;;;;8.42;100.00;96585.72;4975843;28;20479;-66
2022/05/04 03:34:09;;;;;;;7.70;4.15;;;;;;;8.28;100.00;96582.63;4976790;28;20027;-65
2022/05/04 03:36:37;;;;;;;6.22;4.10;;;;;;;8.06;100.00;96592.25;4966950;28;20035;-66
2022/05/04 03:39:04;;;;;;;7.78;4.40;;;;;;;7.90;100.00;96588.75;4994364;28;20035;-65
2022/05/04 03:41:30;;;;;;;5.40;4.25;;;;;;;7.69;100.00;96584.34;4995247;28;20041;-66
2022/05/04 03:43:55;;;;;;;6.90;4.35;;;;;;;7.57;100.00;96593.38;4994357;28;20034;-65
2022/05/04 03:46:25;;;;;;;7.30;4.35;;;;;;;7.78;100.00;96593.16;4992979;28;20081;-68
2022/05/04 03:48:53;;;;;;;8.00;4.43;;;;;;;7.93;100.00;96598.97;4994170;28;20036;-68
2022/05/04 03:51:21;;;;;;;5.45;4.30;;;;;;;7.94;100.00;96597.78;4992592;28;20038;-66
2022/05/04 03:53:52;;;;;;;8.23;4.63;;;;;;;7.80;100.00;96596.31;4976967;28;20031;-65
2022/05/04 03:56:18;;;;;;;5.57;4.38;;;;;;;7.84;100.00;96602.63;4993553;28;20045;-66
2022/05/04 03:58:44;;;;;;;6.75;4.60;;;;;;;7.63;100.00;96610.25;4988101;28;20074;-66
2022/05/04 04:01:10;;;;;;;8.82;4.75;;;;;;;7.43;100.00;96607.41;4971793;28;20045;-69
2022/05/04 04:03:35;;;;;;;7.18;4.40;;;;;;;7.25;100.00;96614.31;4990978;28;20030;-66
2022/05/04 04:06:01;;;;;;;7.47;4.70;;;;;;;7.07;100.00;96608.38;4992787;28;20033;-67
2022/05/04 04:08:28;;;;;;;7.18;4.72;;;;;;;7.11;100.00;96617.41;4994287;28;20154;-66
2022/05/04 04:10:54;;;;;;;6.43;4.72;;;;;;;7.20;100.00;96620.00;4993296;28;20033;-65
2022/05/04 04:13:19;;;;;;;6.93;4.40;;;;;;;7.35;100.00;96613.81;4993841;28;20038;-65
2022/05/04 04:15:45;;;;;;;8.20;4.60;;;;;;;7.52;100.00;96625.53;4993876;28;20579;-66
2022/05/04 04:18:11;;;;;;;7.28;5.13;;;;;;;7.16;100.00;96628.06;4993841;28;20038;-65
2022/05/04 04:23:20;;;;;;;6.30;4.70;;;;;;;7.40;100.00;96624.47;4994115;28;20033;-65
2022/05/04 04:25:46;;;;;;;9.85;4.97;;;;;;;7.42;100.00;96624.13;4999435;28;20034;-68
2022/05/04 04:28:12;;;;;;;7.38;4.60;;;;;;;7.58;100.00;96626.88;4997817;28;20038;-67
2022/05/04 04:30:38;;;;;;;6.93;4.18;;;;;;;7.73;100.00;96622.59;4990907;28;20034;-67
2022/05/04 04:33:07;;;;;;;5.63;4.25;;;;;;;7.83;100.00;96633.78;4992785;28;20037;-69
2022/05/04 04:35:34;;;;;;;7.45;4.47;;;;;;;7.90;100.00;96627.72;4975840;28;20181;-66
2022/05/04 04:38:00;;;;;;;7.10;4.82;;;;;;;7.94;100.00;96628.63;4976660;28;20034;-67
2022/05/04 04:40:25;;;;;;;8.90;4.28;;;;;;;7.99;100.00;96624.81;4996696;28;20483;-65
2022/05/04 04:42:51;;;;;;;5.13;3.90;;;;;;;8.02;100.00;96633.09;5010273;28;20033;-67
2022/05/04 04:45:17;;;;;;;5.22;3.53;;;;;;;7.88;100.00;96631.94;4999636;28;20038;-67
2022/05/04 04:47:46;;;;;;;7.22;4.13;;;;;;;7.82;100.00;96634.91;4992205;28;20030;-67
2022/05/04 04:50:12;;;;;;;7.72;4.28;;;;;;;7.83;100.00;96633.78;4993249;28;20096;-65
2022/05/04 04:52:37;;;;;;;7.30;4.80;;;;;;;7.59;100.00;96625.75;4993282;28;20483;-66
2022/05/04 04:55:04;;;;;;;7.38;5.07;;;;;;;7.65;100.00;96637.97;4993371;28;20033;-67
2022/05/04 04:57:29;;;;;;;9.10;4.75;;;;;;;7.58;100.00;96637.78;4992439;28;20034;-67
2022/05/04 04:59:55;;;;;;;8.63;4.78;;;;;;;8.04;100.00;96633.53;4989932;28;20037;-68
2022/05/04 05:02:20;;;;;;;12.70;4.55;;;;;;;9.45;100.00;96639.41;4993492;28;20053;-65
2022/05/04 05:04:45;;;;;;;5.25;3.90;;;;;;;11.14;100.00;96628.50;4993847;28;20077;-68
2022/05/04 05:07:11;;;;;;;8.10;3.78;;;;;;;12.01;96.36;96636.53;4992867;28;20077;-68
2022/05/04 05:09:36;;;;;;;7.00;3.90;;;;;;;11.62;94.41;96642.41;4965744;28;20026;-67
2022/05/04 05:12:02;;;;;;;7.25;3.60;;;;;;;12.80;91.60;96646.22;4998625;28;20045;-67
2022/05/04 05:17:11;;;;;;;5.80;3.53;;;;;;;13.43;86.69;96648.94;4989643;28;20049;-67
2022/05/04 05:19:37;;;;;;;6.45;3.42;;;;;;;14.11;82.36;96651.13;4993524;28;20497;-68
2022/05/04 05:22:02;;;;;;;5.45;3.53;;;;;;;13.61;85.40;96649.00;4992241;28;20053;-67
2022/05/04 05:24:28;;;;;;;6.40;3.63;;;;;;;14.65;80.16;96649.19;4993355;28;20042;-69
2022/05/04 05:26:53;;;;;;;8.80;4.07;;;;;;;14.87;78.35;96649.19;4991630;28;20105;-68
2022/05/04 05:29:18;;;;;;;6.30;3.63;;;;;;;13.49;86.33;96649.38;4975542;28;20030;-68
2022/05/04 05:31:44;;;;;;;6.72;4.38;;;;;;;13.86;83.36;96643.56;4993048;28;20026;-67
2022/05/04 05:34:09;;;;;;;12.68;4.22;;;;;;;13.63;87.59;96656.88;4993414;28;20038;-68
2022/05/04 05:36:35;;;;;;;7.35;3.90;;;;;;;13.86;87.81;96649.09;4993092;28;20476;-68
2022/05/04 05:39:00;;;;;;;8.45;4.47;;;;;;;13.20;88.55;96647.25;4996476;28;20034;-68
2022/05/04 05:41:25;;;;;;;9.57;4.68;;;;;;;13.01;91.72;96653.81;5007548;28;20121;-67
2022/05/04 05:43:52;;;;;;;5.38;4.00;;;;;;;13.13;92.81;96652.72;5000293;28;20030;-67
2022/05/04 05:46:17;;;;;;;6.35;4.18;;;;;;;12.94;93.49;96653.75;4991921;28;20040;-67
2022/05/04 05:48:43;;;;;;;6.47;4.38;;;;;;;13.91;94.47;96656.19;4997299;28;20030;-66
2022/05/04 05:51:08;;;;;;;6.50;4.55;;;;;;;14.30;89.52;96656.25;4998046;28;20034;-66
2022/05/04 05:53:34;;;;;;;7.63;4.30;;;;;;;15.88;81.21;96654.41;4991644;28;20034;-67
2022/05/04 05:55:59;;;;;;;4.82;3.40;;;;;;;18.02;70.13;96658.38;4986307;28;20031;-68
2022/05/04 05:58:25;;;;;;;4.50;3.40;;;;;;;19.22;60.66;96656.09;4974121;28;20042;-68
2022/05/04 06:00:52;;;;;;;6.13;3.95;;;;;;;19.91;57.83;96658.34;4991872;28;20031;-68
2022/05/04 06:03:18;;;;;;;4.38;2.85;;;;;;;20.72;56.82;96654.91;4990055;28;20037;-68
2022/05/04 06:05:43;;;;;;;5.18;3.63;;;;;;;16.82;69.52;96660.88;4989698;28;20038;-68
2022/05/04 06:08:09;;;;;;;4.43;3.65;;;;;;;16.69;73.92;96659.78;4991911;28;20042;-67
2022/05/04 06:10:38;;;;;;;8.75;4.53;;;;;;;16.07;75.85;96656.66;4990662;28;20126;-68
2022/05/04 06:13:04;;;;;;;6.95;3.67;;;;;;;18.86;64.53;96657.50;4991960;28;20061;-68
2022/05/04 06:15:30;;;;;;;7.82;3.65;;;;;;;21.05;55.25;96656.88;4973693;28;20121;-67
2022/05/04 06:17:56;;;;;;;5.07;3.30;;;;;;;20.50;55.17;96660.19;4991045;28;20109;-67
2022/05/04 06:20:23;;;;;;;5.25;3.00;;;;;;;21.00;54.18;96652.66;4991058;28;20538;-68
2022/05/04 06:22:49;;;;;;;4.03;2.83;;;;;;;23.16;46.96;96655.44;4991574;28;20045;-67
2022/05/04 06:25:14;;;;;;;5.85;2.97;;;;;;;24.23;43.34;96658.38;4989657;28;20117;-69
2022/05/04 06:27:40;;;;;;;4.47;2.97;;;;;;;25.23;40.55;96655.56;4973429;28;20489;-69
2022/05/04 06:35:34;;;;;;;11.65;3.25;;;;;;;22.25;47.91;96655.94;4990693;28;20085;-67
2022/05/04 06:37:59;;;;;;;3.80;2.65;;;;;;;24.20;42.93;96657.28;4991624;28;20031;-67
2022/05/04 06:40:24;;;;;;;4.60;3.55;;;;;;;24.40;42.27;96664.53;4989323;28;20422;-69
2022/05/04 06:42:50;;;;;;;4.72;2.88;;;;;;;25.26;39.72;96661.06;4991289;28;20030;-67
2022/05/04 06:45:15;;;;;;;4.22;2.72;;;;;;;25.47;39.62;96667.78;4991139;28;20026;-65
2022/05/04 06:47:41;;;;;;;5.10;3.08;;;;;;;25.25;38.84;96667.16;4990812;28;20110;-68
2022/05/04 06:50:06;;;;;;;5.28;3.03;;;;;;;23.90;42.12;96672.03;4989352;28;20030;-66
2022/05/04 06:52:32;;;;;;;7.57;3.88;;;;;;;23.84;42.07;96669.03;4991184;28;20488;-68
2022/05/04 06:54:58;;;;;;;5.00;3.20;;;;;;;24.51;41.69;96670.50;4990411;28;20034;-69
2022/05/04 06:57:24;;;;;;;4.97;3.30;;;;;;;24.60;40.97;96676.16;4989476;28;20508;-69
2022/05/04 06:59:49;;;;;;;4.55;3.22;;;;;;;24.83;39.23;96673.25;4990195;28;20048;-66
2022/05/04 07:02:15;;;;;;;7.28;3.47;;;;;;;23.22;43.32;96675.22;4994579;28;20026;-67
2022/05/04 07:04:40;;;;;;;6.45;3.00;;;;;;;22.69;44.56;96670.16;4992884;28;20061;-69
2022/05/04 07:07:06;;;;;;;4.88;3.50;;;;;;;23.17;44.06;96676.56;4976781;28;20471;-68
2022/05/04 07:09:33;;;;;;;13.98;6.97;;;;;;;23.99;42.29;96672.88;4989615;28;20065;-67
2022/05/04 07:11:59;;;;;;;5.35;4.03;;;;;;;22.47;46.09;96670.84;4983112;28;20041;-69
2022/05/04 07:14:24;;;;;;;5.53;3.85;;;;;;;22.66;45.33;96671.81;4995911;28;20031;-68
2022/05/04 07:16:50;;;;;;;9.27;4.43;;;;;;;22.72;44.59;96672.03;4988234;28;20049;-68
2022/05/04 07:19:16;;;;;;;8.07;4.38;;;;;;;22.12;45.88;96669.88;4990944;28;20022;-68
2022/05/04 07:21:42;;;;;;;6.00;3.97;;;;;;;21.13;48.79;96672.97;4989980;28;20031;-68
2022/05/04 07:24:08;;;;;;;7.20;4.95;;;;;;;20.55;50.65;96676.38;4989395;28;20034;-68
2022/05/04 07:26:33;;;;;;;8.25;4.20;;;;;;;20.07;52.23;96682.63;4972196;28;20030;-66
2022/05/04 07:28:59;;;;;;;8.63;4.82;;;;;;;19.85;53.46;96677.53;4990199;28;20034;-68
2022/05/04 07:31:25;;;;;;;5.95;4.32;;;;;;;20.02;53.33;96681.13;4990348;28;20457;-69
2022/05/04 07:33:50;;;;;;;5.22;3.90;;;;;;;20.43;52.18;96683.38;4989419;28;20390;-69
2022/05/04 07:36:15;;;;;;;6.50;4.75;;;;;;;20.05;53.03;96674.72;4988913;28;20072;-69
2022/05/04 07:38:41;;;;;;;7.38;4.75;;;;;;;19.58;54.64;96680.41;4988231;28;20117;-68
2022/05/04 07:43:50;;;;;;;6.45;4.32;;;;;;;18.51;59.14;96689.34;4986766;28;20042;-68
2022/05/04 07:46:16;;;;;;;7.85;4.70;;;;;;;18.47;60.12;96680.31;4958945;28;20093;-70
2022/05/04 07:48:41;;;;;;;9.95;5.70;;;;;;;17.86;62.19;96683.91;4965358;28;20552;-70
2022/05/04 07:51:06;;;;;;;7.78;5.15;;;;;;;17.17;64.98;96683.88;4958539;28;20492;-65
2022/05/04 07:53:32;;;;;;;6.85;4.95;;;;;;;17.10;65.46;96678.41;4963907;28;20129;-69
2022/05/04 07:55:58;;;;;;;7.50;4.82;;;;;;;17.46;64.67;96684.34;4957722;28;20471;-68
2022/05/04 07:58:23;;;;;;;8.43;5.47;;;;;;;18.15;61.50;96682.34;4979461;28;20100;-67
2022/05/04 08:06:16;;;;;;;9.25;5.18;;;;;;;19.55;56.68;96679.25;4976777;28;20034;-69
2022/05/04 08:08:42;;;;;;;11.43;4.97;;;;;;;19.27;56.11;96681.38;4983796;28;20042;-68
2022/05/04 08:11:07;;;;;;;8.02;5.35;;;;;;;19.48;55.79;96682.97;4979008;28;20034;-67
2022/05/04 08:13:33;;;;;;;9.68;4.85;;;;;;;19.39;55.84;96674.44;4982606;28;20193;-68
2022/05/04 08:15:59;;;;;;;9.43;5.40;;;;;;;18.77;57.78;96685.00;4981864;28;20042;-69
2022/05/04 08:18:25;;;;;;;9.68;5.18;;;;;;;19.23;57.03;96685.41;4977124;28;20827;-68
2022/05/04 08:20:51;;;;;;;7.70;5.30;;;;;;;19.16;57.77;96682.78;4982517;28;20057;-70
2022/05/04 08:23:16;;;;;;;7.32;4.82;;;;;;;18.93;57.76;96691.91;4975318;28;20105;-69
2022/05/04 08:25:42;;;;;;;6.50;5.10;;;;;;;18.71;58.65;96695.78;4980318;28;20051;-68
2022/05/04 08:28:07;;;;;;;8.45;4.90;;;;;;;18.43;59.74;96683.13;4979050;28;20046;-69
2022/05/04 08:30:33;;;;;;;11.18;6.28;;;;;;;18.32;61.12;96693.59;4990204;28;20045;-68
2022/05/04 08:32:59;;;;;;;9.50;5.53;;;;;;;17.74;63.98;96696.31;4991915;28;20122;-68
2022/05/04 08:35:24;;;;;;;9.02;6.05;;;;;;;18.00;63.70;96692.03;4997161;28;20108;-63
2022/05/04 08:37:50;;;;;;;12.77;5.95;;;;;;;19.23;58.14;96694.56;4991595;28;20074;-67
2022/05/04 08:40:15;;;;;;;11.68;5.40;;;;;;;20.58;54.33;96686.63;4988266;28;20038;-68
2022/05/04 08:42:43;;;;;;;8.20;4.93;;;;;;;21.72;50.52;96671.03;4991044;28;20062;-69
2022/05/04 08:45:13;;;;;;;8.52;5.18;;;;;;;19.58;55.79;96678.41;4983972;28;20419;-69
2022/05/04 08:47:40;;;;;;;9.23;5.40;;;;;;;22.03;48.58;96681.69;4992728;28;20046;-67
2022/05/04 08:50:17;;;;;;;8.13;5.28;;;;;;;22.00;47.77;96679.00;4986426;28;20042;-68
2022/05/04 08:52:52;;;;;;;9.35;5.60;;;;;;;20.15;52.90;96675.69;5004977;28;20207;-66
2022/05/04 08:55:18;;;;;;;7.32;5.10;;;;;;;19.88;53.33;96679.44;5001675;28;20394;-69
2022/05/04 08:57:43;;;;;;;8.68;5.80;;;;;;;18.65;58.45;96675.25;4993294;28;20038;-68
2022/05/04 09:00:10;;;;;;;9.55;6.65;;;;;;;18.44;58.52;96679.16;4988854;28;20100;-66
2022/05/04 09:02:38;;;;;;;7.18;5.45;;;;;;;18.54;59.95;96675.44;4993039;28;20104;-69
2022/05/04 09:05:18;;;;;;;10.27;6.10;;;;;;;19.75;55.71;96676.50;4986584;28;20043;-64
2022/05/04 09:07:46;;;;;;;9.20;6.18;;;;;;;20.34;54.36;96672.06;4990625;28;20038;-69
2022/05/04 09:10:23;;;;;;;6.57;5.50;;;;;;;20.60;52.04;96673.06;4987230;28;20049;-69
2022/05/04 09:12:52;;;;;;;7.80;5.30;;;;;;;20.76;50.28;96679.88;4987774;28;20042;-69
2022/05/04 09:15:19;;;;;;;8.50;5.43;;;;;;;20.86;48.95;96670.47;4985600;28;20112;-64
2022/05/04 09:17:45;;;;;;;7.75;5.45;;;;;;;21.89;46.43;96666.16;4989661;28;20297;-69
2022/05/04 09:22:55;;;;;;;7.72;4.70;;;;;;;21.66;44.74;96663.63;5004099;28;20124;-70
2022/05/04 09:25:20;;;;;;;8.07;5.38;;;;;;;22.10;43.11;96667.53;4985442;28;20049;-64
2022/05/04 09:27:47;;;;;;;6.88;4.10;;;;;;;22.97;42.68;96662.06;4991543;28;20040;-67
2022/05/04 09:30:12;;;;;;;7.63;5.88;;;;;;;22.40;43.29;96656.31;4986699;28;20038;-68
2022/05/04 09:32:40;;;;;;;6.85;4.80;;;;;;;23.32;40.83;96656.50;4990330;28;20047;-68
2022/05/04 09:35:13;;;;;;;5.95;4.65;;;;;;;22.02;43.83;96648.66;4983493;28;20034;-68
2022/05/04 09:46:07;;;;;;;5.78;4.47;;;;;;;23.60;39.66;96638.72;4985880;28;20056;-68
2022/05/04 09:48:34;;;;;;;10.77;4.63;;;;;;;23.45;40.53;96638.44;4991459;28;20530;-68
2022/05/04 09:51:06;;;;;;;7.72;4.75;;;;;;;23.80;39.57;96632.03;4989802;28;20057;-66
2022/05/04 09:53:33;;;;;;;8.65;4.50;;;;;;;22.89;41.32;96631.56;4987897;28;20108;-68
2022/05/04 09:56:00;;;;;;;8.23;4.95;;;;;;;23.42;40.07;96630.19;4988424;28;20034;-69
2022/05/04 09:58:26;;;;;;;5.88;5.07;;;;;;;23.36;39.49;96632.78;4984679;28;20538;-67
2022/05/04 10:00:53;;;;;;;8.25;5.25;;;;;;;23.18;40.99;96625.03;4995298;28;20042;-68
2022/05/04 10:03:19;;;;;;;6.38;4.38;;;;;;;22.82;41.25;96625.47;4995398;28;20046;-68
2022/05/04 10:05:49;;;;;;;8.82;5.10;;;;;;;22.55;41.76;96628.75;4999345;28;20030;-68
2022/05/04 10:08:15;;;;;;;7.78;5.32;;;;;;;21.79;42.50;96619.06;4993860;28;20490;-68
2022/05/04 10:10:41;;;;;;;7.45;4.97;;;;;;;21.88;43.91;96616.44;5011173;28;20065;-67
2022/05/04 10:13:10;;;;;;;7.05;4.95;;;;;;;22.02;41.46;96615.19;4985529;28;20042;-67
2022/05/04 10:15:38;;;;;;;7.80;5.30;;;;;;;21.69;42.67;96612.59;4989932;28;20175;-69
2022/05/04 10:18:18;;;;;;;6.88;4.88;;;;;;;22.09;42.86;96613.00;4988596;28;20057;-64
2022/05/04 10:20:49;;;;;;;8.30;5.63;;;;;;;22.33;41.42;96610.66;4991523;28;20041;-67
2022/05/04 10:23:24;;;;;;;6.97;4.93;;;;;;;22.75;41.52;96608.94;4985162;28;20046;-65
2022/05/04 10:25:52;;;;;;;8.80;5.45;;;;;;;22.39;43.05;96605.31;4986094;28;20045;-68
2022/05/04 10:28:18;;;;;;;9.95;6.95;;;;;;;21.95;44.29;96607.84;4984752;28;20442;-67
2022/05/04 10:30:53;;;;;;;11.27;5.75;;;;;;;21.71;45.83;96602.56;4989588;28;20054;-68
2022/05/04 10:33:23;;;;;;;7.88;5.20;;;;;;;21.93;44.56;96601.91;4983067;28;20180;-67
2022/05/04 10:35:50;;;;;;;7.63;4.85;;;;;;;22.40;43.89;96601.28;4986008;28;20038;-70
2022/05/04 10:38:28;;;;;;;10.38;6.65;;;;;;;22.24;44.16;96606.97;4983492;28;20045;-68
2022/05/04 10:40:58;;;;;;;10.18;5.80;;;;;;;21.92;44.72;96598.34;4987704;28;20034;-69
2022/05/04 10:43:43;;;;;;;8.82;6.45;;;;;;;21.88;44.62;96600.47;4983315;28;20129;-68
2022/05/04 10:46:21;;;;;;;8.15;6.03;;;;;;;21.98;44.53;96597.81;4981039;28;20154;-68
2022/05/04 10:48:54;;;;;;;11.32;6.88;;;;;;;22.14;44.49;96597.69;4988598;28;20062;-70
2022/05/04 10:51:22;;;;;;;11.30;7.10;;;;;;;22.21;44.93;96596.69;4984086;28;20042;-69
2022/05/04 10:54:03;;;;;;;11.57;7.32;;;;;;;22.32;45.00;96592.34;4989540;28;20041;-69
2022/05/04 10:56:36;;;;;;;10.63;6.65;;;;;;;22.08;44.84;96585.53;4984537;28;20050;-67
2022/05/04 10:59:02;;;;;;;10.18;7.35;;;;;;;21.74;46.00;96584.19;4989687;28;20065;-69
2022/05/04 11:01:36;;;;;;;10.38;7.18;;;;;;;21.58;46.06;96577.44;4987088;28;20065;-69
2022/05/04 11:04:07;;;;;;;13.80;7.45;;;;;;;21.35;47.54;96580.50;4991559;28;20054;-68
2022/05/04 11:06:37;;;;;;;9.15;6.32;;;;;;;21.19;47.45;96582.13;4986027;28;20495;-69
2022/05/04 11:09:08;;;;;;;;;;;;;;;20.34;49.41;96583.06;4986373;28;20069;-65
2022/05/04 11:11:35;;;;;;;10.57;6.75;;;;;;;20.67;47.54;96582.31;4986201;28;19914;-68
2022/05/04 11:14:01;;;;;;;11.02;6.68;;;;;;;20.95;48.37;96578.00;4990910;28;20513;-69
2022/05/04 11:16:28;;;;;;;9.55;6.38;;;;;;;21.19;46.79;96575.75;4982141;28;20154;-70
2022/05/04 11:18:55;;;;;;;10.98;6.53;;;;;;;21.55;45.78;96571.97;4984723;28;20050;-70
2022/05/04 11:21:21;;;;;;;10.02;6.88;;;;;;;19.98;50.50;96570.00;4979738;28;20049;-69
2022/05/04 11:23:48;;;;;;;7.47;5.57;;;;;;;21.12;47.67;96565.63;4986208;28;20045;-68
2022/05/04 11:26:19;;;;;;;8.30;4.88;;;;;;;21.46;44.16;96566.28;4989456;28;20127;-68
2022/05/04 11:28:45;;;;;;;8.98;4.47;;;;;;;21.76;43.76;96565.78;4988860;28;20041;-69
2022/05/04 11:31:11;;;;;;;8.23;4.57;;;;;;;21.93;43.25;96566.47;5004718;28;20046;-69
2022/05/04 11:33:37;;;;;;;6.90;4.60;;;;;;;22.02;43.99;96565.00;4985888;28;20377;-69
2022/05/04 11:36:02;;;;;;;6.20;4.90;;;;;;;21.86;44.01;96561.13;4982091;28;20046;-65
2022/05/04 11:38:28;;;;;;;8.45;4.93;;;;;;;21.67;46.40;96560.06;4980731;28;20042;-69
2022/05/04 11:40:54;;;;;;;7.88;5.82;;;;;;;21.32;46.76;96567.44;4988890;28;20454;-67
2022/05/04 11:43:27;;;;;;;11.35;7.07;;;;;;;21.10;47.89;96568.03;4984588;28;20061;-69
2022/05/04 11:45:52;;;;;;;7.15;5.45;;;;;;;20.59;49.84;96565.00;4992721;28;20125;-68
2022/05/04 11:48:21;;;;;;;9.82;6.32;;;;;;;20.62;48.96;96564.94;4981480;28;20199;-68
2022/05/04 11:50:47;;;;;;;9.48;5.85;;;;;;;20.56;49.02;96560.28;4993811;28;20112;-68
2022/05/04 11:53:13;;;;;;;10.07;6.07;;;;;;;20.54;49.84;96559.94;4984597;28;20129;-69
2022/05/04 11:55:39;;;;;;;13.20;7.05;;;;;;;21.46;48.29;96547.56;4992546;28;20062;-68
2022/05/04 11:58:09;;;;;;;11.90;6.20;;;;;;;21.67;45.48;96540.56;4989749;28;20045;-63
2022/05/04 12:00:35;;;;;;;10.57;6.65;;;;;;;21.67;44.42;96542.59;4986790;28;20049;-68
2022/05/04 12:03:01;;;;;;;9.65;5.50;;;;;;;21.73;44.47;96538.81;4991390;28;20053;-69
2022/05/04 12:05:27;;;;;;;9.60;5.25;;;;;;;21.98;43.88;96542.03;4986446;28;20724;-66
2022/05/04 12:07:53;;;;;;;6.82;4.85;;;;;;;21.94;43.25;96539.34;4994647;28;20042;-69